Time;durP1;ratioP1;P1;durP2;ratioP2;P2;SDS_P1;SDS_P2;PMS_P1;PMS_P2;Temp;Humidity;BMP_temperature;BMP_pressure;BME280_temperature;BME280_humidity;BME280_pressure;Samples;Min_cycle;Max_cycle;Signal;HPM_P1;HPM_P2
2022/10/21 00:00:38;;;;;;;35.65;27.45;;;13.70;99.90;;;;;;6271882;22;20004;-78
2022/10/21 00:03:03;;;;;;;35.88;27.58;;;13.60;99.90;;;;;;6272881;22;20408;-77
2022/10/21 00:05:29;;;;;;;39.92;26.70;;;13.70;99.90;;;;;;6272657;22;20012;-77
2022/10/21 00:07:55;;;;;;;34.03;25.85;;;13.70;99.90;;;;;;6272635;22;19996;-77
2022/10/21 00:10:20;;;;;;;34.60;27.75;;;13.80;99.90;;;;;;6272763;22;20494;-78
2022/10/21 00:12:46;;;;;;;36.80;26.20;;;13.80;99.90;;;;;;6272500;22;20027;-78
2022/10/21 00:15:12;;;;;;;37.35;26.70;;;14.40;99.90;;;;;;6272082;22;20007;-77
2022/10/21 00:17:40;;;;;;;36.25;26.15;;;13.70;99.90;;;;;;6272652;22;20038;-77
2022/10/21 00:20:08;;;;;;;39.63;26.63;;;13.80;99.90;;;;;;6272617;22;20006;-78
2022/10/21 00:22:34;;;;;;;35.28;25.55;;;13.90;99.90;;;;;;6272720;22;20004;-78
2022/10/21 00:25:00;;;;;;;36.05;26.85;;;14.70;99.90;;;;;;6272218;22;20076;-78
2022/10/21 00:27:26;;;;;;;36.40;26.52;;;13.80;99.90;;;;;;6272826;22;20041;-78
2022/10/21 00:29:52;;;;;;;37.22;26.55;;;13.90;99.90;;;;;;6272066;22;20397;-78
2022/10/21 00:32:17;;;;;;;38.00;26.90;;;14.80;99.90;;;;;;6272592;22;20014;-78
2022/10/21 00:34:43;;;;;;;34.00;26.33;;;13.90;99.90;;;;;;6272357;22;20006;-78
2022/10/21 00:37:09;;;;;;;35.40;25.92;;;13.90;99.90;;;;;;6272528;22;20039;-77
2022/10/21 00:39:36;;;;;;;42.15;26.92;;;13.90;99.90;;;;;;6272550;22;20360;-77
2022/10/21 00:42:04;;;;;;;37.78;26.67;;;13.90;99.90;;;;;;6272773;22;20008;-78
2022/10/21 00:44:30;;;;;;;37.80;25.60;;;14.60;99.90;;;;;;6272059;22;19995;-78
2022/10/21 00:47:09;;;;;;;39.83;27.30;;;13.90;99.90;;;;;;6272318;22;20004;-77
2022/10/21 00:49:56;;;;;;;37.15;26.13;;;13.90;99.90;;;;;;6273578;22;20011;-78
2022/10/21 00:52:22;;;;;;;34.35;25.70;;;13.90;99.90;;;;;;6274769;22;20435;-78
2022/10/21 00:54:51;;;;;;;34.00;24.40;;;13.80;99.90;;;;;;6274400;22;20084;-78
2022/10/21 00:57:18;;;;;;;33.88;25.20;;;13.80;99.90;;;;;;6274402;22;20003;-78
2022/10/21 00:59:49;;;;;;;40.90;26.02;;;13.90;99.90;;;;;;6272190;22;20004;-78
2022/10/21 01:02:15;;;;;;;35.63;25.77;;;13.90;99.90;;;;;;6274634;22;19992;-78
2022/10/21 01:04:40;;;;;;;35.30;26.40;;;13.70;99.90;;;;;;6274422;22;19996;-78
2022/10/21 01:07:06;;;;;;;41.10;25.75;;;13.90;99.90;;;;;;6274962;22;20000;-79
2022/10/21 01:09:32;;;;;;;35.03;26.77;;;13.80;99.90;;;;;;6274354;22;19996;-78
2022/10/21 01:11:59;;;;;;;40.53;27.52;;;13.80;99.90;;;;;;6274417;22;20107;-77
2022/10/21 01:14:47;;;;;;;46.55;28.65;;;16.20;99.90;;;;;;6273852;22;20139;-77
2022/10/21 01:17:23;;;;;;;35.95;25.30;;;13.80;99.90;;;;;;6274377;22;20004;-77
2022/10/21 01:20:33;;;;;;;39.85;24.55;;;11.90;99.90;;;;;;6273960;22;20027;-77
2022/10/21 01:23:30;;;;;;;37.80;25.25;;;13.70;99.90;;;;;;6242634;22;20004;-77
2022/10/21 01:25:58;;;;;;;37.53;23.77;;;13.70;99.90;;;;;;6273812;22;20094;-77
2022/10/21 01:28:52;;;;;;;39.28;26.23;;;13.70;99.90;;;;;;6273729;22;19996;-78
2022/10/21 01:31:37;;;;;;;38.92;25.58;;;13.70;99.90;;;;;;6274307;22;20007;-77
2022/10/21 01:34:28;;;;;;;39.20;25.02;;;13.70;99.90;;;;;;6274522;22;20023;-77
2022/10/21 01:37:07;;;;;;;43.90;25.70;;;13.50;99.90;;;;;;6273900;22;20049;-77
2022/10/21 01:39:37;;;;;;;35.55;27.17;;;13.50;99.90;;;;;;6274069;22;19996;-77
2022/10/21 01:42:05;;;;;;;39.15;27.38;;;13.40;99.90;;;;;;6273614;22;20059;-77
2022/10/21 01:44:39;;;;;;;44.10;28.95;;;13.40;99.90;;;;;;6273883;22;20000;-77
2022/10/21 01:47:07;;;;;;;47.63;28.02;;;13.50;99.90;;;;;;6274347;22;19999;-77
2022/10/21 01:49:41;;;;;;;34.38;24.60;;;13.40;99.90;;;;;;6273671;22;20004;-77
2022/10/21 01:52:11;;;;;;;40.45;27.60;;;13.40;99.90;;;;;;6273324;22;20365;-78
2022/10/21 01:54:48;;;;;;;41.50;27.23;;;13.50;99.90;;;;;;6272828;22;20053;-77
2022/10/21 01:57:17;;;;;;;41.40;26.90;;;13.50;99.90;;;;;;6273403;22;20813;-78
2022/10/21 01:59:45;;;;;;;49.92;29.58;;;13.50;99.90;;;;;;6273345;22;20003;-78
2022/10/21 02:02:11;;;;;;;48.90;28.52;;;13.50;99.90;;;;;;6273968;22;20077;-77
2022/10/21 02:04:40;;;;;;;43.05;29.17;;;13.60;99.90;;;;;;6273696;22;19999;-77
2022/10/21 02:07:06;;;;;;;49.55;27.95;;;13.60;99.90;;;;;;6272339;22;20075;-78
2022/10/21 02:09:32;;;;;;;52.80;32.00;;;13.50;99.90;;;;;;6274021;22;20484;-77
2022/10/21 02:12:00;;;;;;;53.92;29.65;;;13.50;99.90;;;;;;6273209;22;20035;-77
2022/10/21 02:14:46;;;;;;;46.05;28.98;;;14.90;99.90;;;;;;6273920;22;20004;-77
2022/10/21 02:17:16;;;;;;;45.50;30.35;;;13.50;99.90;;;;;;6273911;22;19996;-77
2022/10/21 02:19:42;;;;;;;45.13;27.40;;;13.20;99.90;;;;;;6273744;22;20074;-78
2022/10/21 02:22:12;;;;;;;46.40;29.30;;;13.40;99.90;;;;;;6273996;22;20038;-77
2022/10/21 02:24:56;;;;;;;45.63;29.20;;;13.40;99.90;;;;;;6273617;22;20006;-77
2022/10/21 02:27:22;;;;;;;49.03;29.55;;;13.30;99.90;;;;;;6273731;22;20677;-77
2022/10/21 02:29:53;;;;;;;45.05;27.83;;;13.20;99.90;;;;;;6273492;22;20042;-78
2022/10/21 02:32:45;;;;;;;47.05;28.55;;;13.30;99.90;;;;;;6273809;22;20425;-77
2022/10/21 02:35:29;;;;;;;48.03;29.52;;;13.20;99.90;;;;;;6272030;22;20004;-77
2022/10/21 02:38:36;;;;;;;47.00;26.80;;;13.10;99.90;;;;;;6273610;22;20417;-78
2022/10/21 02:41:07;;;;;;;49.72;28.90;;;13.20;99.90;;;;;;6272934;22;20006;-77
2022/10/21 02:43:42;;;;;;;53.30;28.77;;;13.00;99.90;;;;;;6273651;22;20004;-77
2022/10/21 02:46:10;;;;;;;48.03;27.75;;;12.90;99.90;;;;;;6273718;22;20010;-78
2022/10/21 02:48:37;;;;;;;47.80;26.08;;;13.10;99.90;;;;;;6271167;22;20080;-77
2022/10/21 02:51:05;;;;;;;47.58;30.08;;;13.00;99.90;;;;;;6273012;22;20006;-77
2022/10/21 02:53:31;;;;;;;48.30;27.85;;;13.00;99.90;;;;;;6273030;22;19996;-77
2022/10/21 02:55:57;;;;;;;51.72;28.13;;;12.90;99.90;;;;;;6272445;22;20016;-77
2022/10/21 02:58:23;;;;;;;52.08;29.10;;;13.50;99.90;;;;;;6273102;22;20452;-77
2022/10/21 03:00:48;;;;;;;56.75;31.23;;;12.90;99.90;;;;;;6272760;22;20070;-77
2022/10/21 03:03:14;;;;;;;51.67;30.17;;;12.80;99.90;;;;;;6273276;22;20029;-77
2022/10/21 03:05:39;;;;;;;57.85;33.22;;;12.90;99.90;;;;;;6272525;22;20011;-77
2022/10/21 03:08:05;;;;;;;61.15;32.53;;;12.80;99.90;;;;;;6273436;22;20433;-77
2022/10/21 03:10:31;;;;;;;56.88;32.03;;;12.90;99.90;;;;;;6272442;22;20004;-77
2022/10/21 03:12:56;;;;;;;55.17;32.28;;;12.90;99.90;;;;;;6272605;22;20004;-77
2022/10/21 03:15:22;;;;;;;51.70;29.75;;;12.80;99.90;;;;;;6272685;22;20082;-77
2022/10/21 03:17:47;;;;;;;44.30;27.77;;;12.90;99.90;;;;;;6272852;22;20007;-77
2022/10/21 03:20:13;;;;;;;44.40;28.05;;;12.90;99.90;;;;;;6273450;22;20332;-77
2022/10/21 03:22:39;;;;;;;52.05;28.05;;;12.90;99.90;;;;;;6272939;22;20003;-77
2022/10/21 03:25:05;;;;;;;55.25;28.10;;;10.90;99.90;;;;;;6272280;22;20046;-78
2022/10/21 03:27:31;;;;;;;49.40;28.48;;;12.70;99.90;;;;;;6272973;22;20094;-77
2022/10/21 03:29:57;;;;;;;58.03;29.88;;;12.70;99.90;;;;;;6272859;22;20024;-78
2022/10/21 03:32:22;;;;;;;52.10;28.92;;;12.70;99.90;;;;;;6272946;22;20000;-78
2022/10/21 03:34:48;;;;;;;55.35;29.63;;;12.70;99.90;;;;;;6273350;22;20325;-77
2022/10/21 03:37:14;;;;;;;50.40;29.25;;;13.60;99.90;;;;;;6272974;22;20019;-77
2022/10/21 03:39:39;;;;;;;61.33;29.85;;;12.70;99.90;;;;;;6272330;22;20436;-78
2022/10/21 03:42:05;;;;;;;56.90;33.08;;;12.70;99.90;;;;;;6273100;22;20054;-77
2022/10/21 03:44:30;;;;;;;58.83;32.72;;;12.60;99.90;;;;;;6272805;22;20000;-77
2022/10/21 03:46:56;;;;;;;60.28;32.58;;;12.60;99.90;;;;;;6272941;22;20430;-78
2022/10/21 03:49:22;;;;;;;59.70;31.25;;;13.40;99.90;;;;;;6272920;22;20402;-78
2022/10/21 03:51:48;;;;;;;56.58;31.23;;;12.40;99.90;;;;;;6272808;22;20194;-77
2022/10/21 03:54:14;;;;;;;76.00;36.75;;;12.70;99.90;;;;;;6272602;22;20031;-77
2022/10/21 03:56:39;;;;;;;62.90;34.15;;;12.50;99.90;;;;;;6272414;22;20107;-77
2022/10/21 03:59:05;;;;;;;52.70;30.38;;;12.60;99.90;;;;;;6272878;22;20014;-77
2022/10/21 04:01:30;;;;;;;57.00;30.38;;;12.50;99.90;;;;;;6272791;22;20386;-77
2022/10/21 04:03:56;;;;;;;65.32;31.50;;;12.50;99.90;;;;;;6272702;22;20490;-77
2022/10/21 04:06:21;;;;;;;54.60;29.63;;;13.30;99.90;;;;;;6272518;22;20061;-77
2022/10/21 04:08:47;;;;;;;52.95;28.55;;;12.40;99.90;;;;;;6271710;22;20165;-77
2022/10/21 04:11:12;;;;;;;53.88;28.15;;;12.40;99.90;;;;;;6272574;22;20027;-77
2022/10/21 04:13:38;;;;;;;49.38;26.95;;;12.40;99.90;;;;;;6272392;22;19992;-78
2022/10/21 04:16:06;;;;;;;50.10;27.70;;;12.40;99.90;;;;;;6273046;22;20325;-77
2022/10/21 04:18:31;;;;;;;51.58;27.58;;;12.40;99.90;;;;;;6273283;22;20007;-78
2022/10/21 04:20:57;;;;;;;54.28;28.67;;;12.40;99.90;;;;;;6271222;22;20004;-78
2022/10/21 04:23:23;;;;;;;48.67;27.90;;;12.30;99.90;;;;;;6272926;22;20076;-78
2022/10/21 04:25:48;;;;;;;48.08;29.23;;;12.30;99.90;;;;;;6274334;22;20008;-76
2022/10/21 04:28:14;;;;;;;51.42;27.63;;;12.50;99.90;;;;;;6274898;22;20026;-77
2022/10/21 04:30:40;;;;;;;46.72;25.85;;;12.30;99.90;;;;;;6274561;22;20030;-77
2022/10/21 04:33:05;;;;;;;49.00;25.58;;;12.30;99.90;;;;;;6274478;22;20022;-77
2022/10/21 04:35:31;;;;;;;45.55;25.88;;;12.10;99.90;;;;;;6273250;22;19996;-77
2022/10/21 04:37:56;;;;;;;47.47;26.58;;;12.50;99.90;;;;;;6272824;22;20019;-77
2022/10/21 04:40:22;;;;;;;51.15;27.13;;;12.20;99.90;;;;;;6274331;22;20440;-77
2022/10/21 04:42:48;;;;;;;55.83;25.92;;;12.30;99.90;;;;;;6273658;22;20106;-77
2022/10/21 04:45:15;;;;;;;46.35;25.20;;;12.30;99.90;;;;;;6273976;22;20018;-77
2022/10/21 04:47:41;;;;;;;47.80;25.27;;;12.80;99.90;;;;;;6273641;22;20034;-77
2022/10/21 04:50:07;;;;;;;44.65;25.65;;;12.20;99.90;;;;;;6273806;22;20361;-77
2022/10/21 04:52:32;;;;;;;44.72;25.23;;;12.10;99.90;;;;;;6271587;22;20011;-79
2022/10/21 04:54:58;;;;;;;61.65;27.23;;;12.20;99.90;;;;;;6274215;22;20087;-78
2022/10/21 04:57:23;;;;;;;41.20;23.02;;;12.10;99.90;;;;;;6274114;22;20150;-77
2022/10/21 04:59:49;;;;;;;44.72;23.65;;;12.10;99.90;;;;;;6274565;22;19996;-77
2022/10/21 05:02:15;;;;;;;45.65;26.25;;;12.00;99.90;;;;;;6274642;22;20081;-77
2022/10/21 05:04:40;;;;;;;54.03;29.50;;;12.00;99.90;;;;;;6274179;22;20000;-77
2022/10/21 05:07:07;;;;;;;54.75;32.00;;;11.90;99.90;;;;;;6274785;22;20421;-77
2022/10/21 05:09:32;;;;;;;53.65;28.17;;;11.90;99.90;;;;;;6274728;22;20011;-77
2022/10/21 05:11:58;;;;;;;42.92;25.35;;;11.90;99.90;;;;;;6274416;22;20374;-77
2022/10/21 05:14:23;;;;;;;49.30;25.42;;;11.90;99.90;;;;;;6274479;22;20007;-77
2022/10/21 05:16:49;;;;;;;44.58;23.88;;;11.80;99.90;;;;;;6274198;22;20000;-76
2022/10/21 05:19:14;;;;;;;50.72;26.02;;;11.70;99.90;;;;;;6273816;22;20004;-76
2022/10/21 05:21:40;;;;;;;50.20;24.48;;;11.70;99.90;;;;;;6274219;22;20063;-76
2022/10/21 05:24:05;;;;;;;53.17;22.73;;;11.70;99.90;;;;;;6274473;22;20003;-76
2022/10/21 05:26:31;;;;;;;57.88;23.58;;;11.70;99.90;;;;;;6273942;22;20030;-77
2022/10/21 05:28:57;;;;;;;43.28;20.90;;;11.60;99.90;;;;;;6274021;22;20061;-77
2022/10/21 05:31:23;;;;;;;48.88;21.80;;;12.40;99.90;;;;;;6274496;22;20010;-76
2022/10/21 05:33:49;;;;;;;44.70;21.10;;;11.40;99.90;;;;;;6273593;22;20073;-78
2022/10/21 05:36:15;;;;;;;41.75;22.35;;;11.40;99.90;;;;;;6273805;22;19999;-77
2022/10/21 05:38:40;;;;;;;39.42;21.52;;;11.40;99.90;;;;;;6274395;22;20051;-77
2022/10/21 05:41:06;;;;;;;48.38;23.30;;;11.30;99.90;;;;;;6272591;22;20410;-76
2022/10/21 05:43:32;;;;;;;45.35;23.52;;;11.40;99.90;;;;;;6274357;22;20049;-77
2022/10/21 05:45:57;;;;;;;43.97;22.35;;;11.20;99.90;;;;;;6274128;22;20042;-77
2022/10/21 05:48:23;;;;;;;42.78;22.58;;;11.20;99.90;;;;;;6273609;22;20007;-77
2022/10/21 05:50:52;;;;;;;42.45;22.00;;;11.40;99.90;;;;;;6272256;22;20349;-77
2022/10/21 05:53:18;;;;;;;39.42;23.27;;;11.30;99.90;;;;;;6274411;22;20031;-77
2022/10/21 05:55:44;;;;;;;47.33;25.38;;;11.20;99.90;;;;;;6273765;22;20011;-77
2022/10/21 05:58:09;;;;;;;49.35;26.38;;;11.30;99.90;;;;;;6274117;22;20008;-78
2022/10/21 06:00:35;;;;;;;45.83;26.38;;;11.50;99.90;;;;;;6274363;22;20086;-77
2022/10/21 06:03:00;;;;;;;57.00;25.77;;;11.50;99.90;;;;;;6271720;22;20142;-77
2022/10/21 06:05:26;;;;;;;52.10;23.90;;;11.40;99.90;;;;;;6274252;22;20007;-77
2022/10/21 06:07:52;;;;;;;53.75;24.50;;;11.50;99.90;;;;;;6274046;22;19999;-78
2022/10/21 06:10:17;;;;;;;55.92;26.65;;;11.50;99.90;;;;;;6274023;22;19999;-77
2022/10/21 06:12:43;;;;;;;55.58;25.63;;;11.40;99.90;;;;;;6273896;22;20002;-77
2022/10/21 06:15:09;;;;;;;53.28;26.10;;;11.60;99.90;;;;;;6274053;22;19999;-78
2022/10/21 06:17:34;;;;;;;49.20;25.10;;;11.50;99.90;;;;;;6271628;22;20437;-77
2022/10/21 06:20:00;;;;;;;58.92;27.15;;;11.50;99.90;;;;;;6271969;22;20014;-78
2022/10/21 06:22:27;;;;;;;59.97;26.23;;;12.70;99.90;;;;;;6274125;22;20006;-77
2022/10/21 06:24:52;;;;;;;55.97;25.95;;;11.50;99.90;;;;;;6275032;22;20000;-78
2022/10/21 06:27:19;;;;;;;61.13;27.42;;;11.50;99.90;;;;;;6273227;22;20090;-77
2022/10/21 06:29:44;;;;;;;48.65;23.48;;;11.50;99.90;;;;;;6273849;22;20486;-78
2022/10/21 06:32:11;;;;;;;50.22;25.75;;;11.50;99.90;;;;;;6273107;22;20026;-78
2022/10/21 06:34:36;;;;;;;56.80;27.85;;;11.60;99.90;;;;;;6273487;22;20475;-78
2022/10/21 06:37:02;;;;;;;62.25;30.35;;;11.50;99.90;;;;;;6273792;22;20004;-78
2022/10/21 06:39:28;;;;;;;54.30;26.95;;;11.60;99.90;;;;;;6273527;22;20007;-78
2022/10/21 06:41:53;;;;;;;54.03;28.48;;;11.60;99.90;;;;;;6272974;22;20023;-77
2022/10/21 06:44:19;;;;;;;49.75;25.52;;;12.00;99.90;;;;;;6272567;22;20000;-77
2022/10/21 06:46:44;;;;;;;50.58;25.92;;;11.70;99.90;;;;;;6272317;22;20008;-77
2022/10/21 06:49:10;;;;;;;54.35;25.52;;;11.80;99.90;;;;;;6273627;22;20000;-77
2022/10/21 06:51:35;;;;;;;51.53;25.92;;;11.80;99.90;;;;;;6273502;22;20010;-78
2022/10/21 06:54:01;;;;;;;46.83;25.60;;;11.80;99.90;;;;;;6273512;22;20007;-77
2022/10/21 06:56:27;;;;;;;51.83;25.27;;;11.80;99.90;;;;;;6273149;22;20032;-78
2022/10/21 06:58:56;;;;;;;47.85;23.30;;;12.60;99.90;;;;;;6273174;22;20050;-78
2022/10/21 07:01:24;;;;;;;55.72;27.33;;;11.90;99.90;;;;;;6271476;22;20008;-73
2022/10/21 07:03:51;;;;;;;54.33;25.67;;;11.90;99.90;;;;;;6271537;22;20483;-73
2022/10/21 07:06:17;;;;;;;62.00;31.67;;;12.00;99.90;;;;;;6271863;22;20505;-72
2022/10/21 07:08:43;;;;;;;57.47;29.80;;;12.10;99.90;;;;;;6272441;22;20003;-74
2022/10/21 07:11:11;;;;;;;55.90;30.88;;;12.10;99.90;;;;;;6272806;22;20410;-73
2022/10/21 07:13:37;;;;;;;55.03;29.00;;;12.30;99.90;;;;;;6272186;22;20035;-73
2022/10/21 07:16:05;;;;;;;56.85;28.85;;;12.30;99.90;;;;;;6271798;22;20065;-73
2022/10/21 07:18:31;;;;;;;52.63;28.55;;;12.40;99.90;;;;;;6271991;22;20004;-73
2022/10/21 07:21:09;;;;;;;54.10;27.23;;;12.40;99.90;;;;;;6272279;22;20283;-73
2022/10/21 07:23:34;;;;;;;49.67;28.05;;;12.60;99.90;;;;;;6272423;22;19995;-72
2022/10/21 07:26:07;;;;;;;55.65;28.10;;;12.60;99.90;;;;;;6271991;22;20081;-73
2022/10/21 07:28:33;;;;;;;45.20;25.95;;;12.60;99.90;;;;;;6272383;22;20425;-74
2022/10/21 07:30:59;;;;;;;48.58;27.20;;;;;;;;;;6271944;22;20015;-73
2022/10/21 07:33:25;;;;;;;46.20;26.15;;;12.70;99.90;;;;;;6271672;22;20006;-73
2022/10/21 07:35:50;;;;;;;47.50;26.77;;;12.70;99.90;;;;;;6271655;22;20027;-73
2022/10/21 07:38:16;;;;;;;44.42;25.73;;;13.30;99.90;;;;;;6272417;22;20402;-73
2022/10/21 07:40:43;;;;;;;42.42;25.73;;;12.90;99.90;;;;;;6272094;22;19996;-73
2022/10/21 07:43:09;;;;;;;45.72;23.55;;;13.00;99.90;;;;;;6272570;22;20000;-73
2022/10/21 07:45:41;;;;;;;44.60;25.52;;;13.10;99.90;;;;;;6271125;22;20470;-74
2022/10/21 07:48:08;;;;;;;39.63;25.27;;;13.10;99.90;;;;;;6271604;22;20000;-74
2022/10/21 07:50:35;;;;;;;45.88;26.45;;;13.10;99.90;;;;;;6269657;22;20436;-74
2022/10/21 07:53:01;;;;;;;40.05;24.77;;;13.10;99.90;;;;;;6268885;22;20008;-74
2022/10/21 07:55:27;;;;;;;40.22;24.35;;;13.20;99.90;;;;;;6270869;22;20066;-74
2022/10/21 07:57:53;;;;;;;43.03;25.15;;;13.40;99.90;;;;;;6270406;22;20047;-74
2022/10/21 08:00:18;;;;;;;36.20;24.35;;;13.40;99.90;;;;;;6270403;22;20026;-74
2022/10/21 08:02:47;;;;;;;37.35;23.85;;;13.40;99.90;;;;;;6270607;22;20011;-74
2022/10/21 08:05:12;;;;;;;43.40;24.80;;;13.40;99.90;;;;;;6270786;22;20507;-74
2022/10/21 08:07:38;;;;;;;36.60;23.75;;;13.50;99.90;;;;;;6270825;22;20031;-74
2022/10/21 08:10:04;;;;;;;39.15;22.98;;;13.50;99.90;;;;;;6270973;22;20035;-74
2022/10/21 08:12:30;;;;;;;41.88;23.55;;;13.60;99.90;;;;;;6270859;22;20003;-74
2022/10/21 08:14:55;;;;;;;32.85;20.30;;;13.70;99.90;;;;;;6269957;22;19996;-74
2022/10/21 08:17:21;;;;;;;35.92;22.73;;;13.80;99.90;;;;;;6270782;22;20004;-74
2022/10/21 08:19:47;;;;;;;29.83;20.00;;;13.80;99.90;;;;;;6270977;22;20447;-74
2022/10/21 08:22:12;;;;;;;36.50;22.65;;;13.90;99.90;;;;;;6271063;22;20049;-74
2022/10/21 08:24:37;;;;;;;31.42;21.67;;;14.00;99.90;;;;;;6270678;22;20333;-74
2022/10/21 08:27:04;;;;;;;34.03;20.48;;;14.00;99.90;;;;;;6270633;22;20449;-73
2022/10/21 08:29:29;;;;;;;29.55;19.35;;;14.50;99.90;;;;;;6271045;22;20010;-74
2022/10/21 08:31:55;;;;;;;31.10;21.08;;;14.30;99.90;;;;;;6271142;22;20008;-74
2022/10/21 08:34:20;;;;;;;30.83;20.20;;;14.40;99.90;;;;;;6271548;22;20004;-74
2022/10/21 08:36:46;;;;;;;34.15;21.33;;;14.30;99.90;;;;;;6271103;22;19999;-73
2022/10/21 08:39:11;;;;;;;35.00;20.98;;;14.30;99.90;;;;;;6271609;22;20000;-74
2022/10/21 08:41:52;;;;;;;30.75;20.70;;;15.40;99.90;;;;;;6271188;22;20317;-74
2022/10/21 08:44:46;;;;;;;33.83;22.20;;;14.40;99.90;;;;;;6270693;22;20004;-73
2022/10/21 08:47:33;;;;;;;29.98;21.05;;;14.50;99.90;;;;;;6254969;22;20003;-74
2022/10/21 08:50:09;;;;;;;28.98;19.80;;;14.50;99.90;;;;;;6270882;22;20011;-73
2022/10/21 08:52:47;;;;;;;29.15;19.20;;;14.60;99.90;;;;;;6271289;22;20079;-74
2022/10/21 08:55:22;;;;;;;25.45;19.05;;;14.60;99.90;;;;;;6271359;22;20000;-74
2022/10/21 08:57:49;;;;;;;28.02;21.50;;;14.70;99.90;;;;;;6269817;22;20008;-74
2022/10/21 09:00:19;;;;;;;24.42;18.95;;;14.70;99.90;;;;;;6271013;22;20008;-74
2022/10/21 09:03:21;;;;;;;34.08;19.55;;;15.80;99.90;;;;;;6271040;22;20007;-74
2022/10/21 09:06:20;;;;;;;27.23;17.65;;;14.90;99.90;;;;;;6271128;22;20004;-75
2022/10/21 09:08:58;;;;;;;26.92;17.83;;;14.90;99.90;;;;;;6271494;22;20061;-75
2022/10/21 09:11:34;;;;;;;19.17;15.85;;;15.00;99.90;;;;;;6272513;22;20405;-75
2022/10/21 09:14:00;;;;;;;21.55;15.70;;;15.00;99.90;;;;;;6272221;22;20305;-74
2022/10/21 09:16:37;;;;;;;26.55;15.18;;;15.10;99.90;;;;;;6273149;22;20039;-74
2022/10/21 09:19:48;;;;;;;19.77;13.95;;;15.10;99.90;;;;;;6271019;22;20535;-74
2022/10/21 09:22:31;;;;;;;19.52;13.13;;;15.10;99.90;;;;;;6273023;22;20004;-74
2022/10/21 09:25:08;;;;;;;21.52;14.23;;;15.30;99.90;;;;;;6273073;22;20007;-74
2022/10/21 09:27:33;;;;;;;22.63;14.43;;;15.20;99.90;;;;;;6272058;22;20421;-73
2022/10/21 09:30:04;;;;;;;17.98;12.73;;;15.20;99.90;;;;;;6272734;22;20061;-73
2022/10/21 09:32:39;;;;;;;19.92;14.05;;;15.20;99.90;;;;;;6273059;22;20061;-74
2022/10/21 09:35:14;;;;;;;17.85;13.95;;;15.40;99.90;;;;;;6273047;22;20406;-74
2022/10/21 09:37:59;;;;;;;21.13;13.27;;;15.40;99.90;;;;;;6272442;22;20034;-74
2022/10/21 09:40:27;;;;;;;17.67;11.40;;;15.50;99.90;;;;;;6272958;22;20099;-74
2022/10/21 09:42:55;;;;;;;17.63;10.93;;;15.50;99.90;;;;;;6271145;22;20010;-75
2022/10/21 09:45:32;;;;;;;14.95;10.40;;;15.40;99.90;;;;;;6272932;22;20003;-73
2022/10/21 09:48:16;;;;;;;12.75;10.02;;;15.50;99.90;;;;;;6272336;22;20000;-73
2022/10/21 09:50:42;;;;;;;11.90;9.63;;;15.60;99.90;;;;;;6270946;22;20000;-72
2022/10/21 09:53:18;;;;;;;15.00;10.10;;;15.50;99.90;;;;;;6272705;22;19999;-75
2022/10/21 09:55:47;;;;;;;15.27;10.25;;;15.50;99.90;;;;;;6271343;22;20302;-75
2022/10/21 09:58:24;;;;;;;13.63;10.23;;;15.60;99.90;;;;;;6271998;22;20491;-75
2022/10/21 10:00:50;;;;;;;18.42;11.00;;;15.80;99.90;;;;;;6272801;22;19999;-73
2022/10/21 10:03:30;;;;;;;14.18;11.05;;;15.50;99.90;;;;;;6272478;22;19995;-73
2022/10/21 10:05:57;;;;;;;12.95;10.27;;;16.10;99.90;;;;;;6272572;22;20003;-73
2022/10/21 10:08:32;;;;;;;18.20;12.30;;;15.50;99.90;;;;;;6272433;22;20425;-74
2022/10/21 10:11:01;;;;;;;17.77;12.68;;;15.60;99.90;;;;;;6271567;22;20441;-74
2022/10/21 10:13:28;;;;;;;13.02;10.90;;;15.60;99.90;;;;;;6272469;22;20309;-74
2022/10/21 10:15:53;;;;;;;13.43;10.10;;;15.70;99.90;;;;;;6272646;22;20034;-74
2022/10/21 10:18:22;;;;;;;21.15;12.55;;;15.90;99.90;;;;;;6272265;22;20007;-74
2022/10/21 10:21:11;;;;;;;18.83;11.80;;;15.90;99.90;;;;;;6272409;22;20008;-73
2022/10/21 10:23:52;;;;;;;18.00;12.07;;;15.90;99.90;;;;;;6272058;22;20117;-74
2022/10/21 10:26:41;;;;;;;17.23;11.65;;;16.10;99.90;;;;;;6271900;22;20008;-74
2022/10/21 10:29:17;;;;;;;15.98;11.73;;;16.00;99.90;;;;;;6272332;22;19997;-74
2022/10/21 10:31:53;;;;;;;15.80;12.82;;;16.30;99.90;;;;;;6272263;22;20075;-74
2022/10/21 10:34:22;;;;;;;17.02;13.25;;;16.30;99.90;;;;;;6272032;22;20039;-75
2022/10/21 10:36:48;;;;;;;16.27;12.68;;;16.40;99.90;;;;;;6270495;22;20039;-74
2022/10/21 10:39:31;;;;;;;16.52;12.52;;;16.30;99.90;;;;;;6270485;22;19996;-74
2022/10/21 10:41:57;;;;;;;17.67;10.98;;;16.50;99.90;;;;;;6272169;22;20692;-74
2022/10/21 10:44:34;;;;;;;14.90;12.02;;;16.70;99.90;;;;;;6270629;22;20303;-74
2022/10/21 10:47:02;;;;;;;15.60;11.73;;;16.70;99.90;;;;;;6272109;22;20045;-74
2022/10/21 10:49:38;;;;;;;13.88;11.90;;;16.50;99.90;;;;;;6272114;22;20001;-74
2022/10/21 10:52:03;;;;;;;16.35;12.43;;;16.70;99.90;;;;;;6271699;22;20008;-74
2022/10/21 10:54:29;;;;;;;14.27;9.63;;;18.50;99.90;;;;;;6271754;22;20061;-74
2022/10/21 10:57:16;;;;;;;13.18;11.02;;;16.70;99.90;;;;;;6272060;22;20011;-75
2022/10/21 10:59:51;;;;;;;13.85;10.73;;;16.80;99.90;;;;;;6271636;22;20038;-74
2022/10/21 11:02:44;;;;;;;14.75;11.00;;;16.90;99.90;;;;;;6271346;22;20000;-73
2022/10/21 11:05:35;;;;;;;14.35;10.43;;;16.90;99.90;;;;;;6272057;22;20054;-73
2022/10/21 11:08:20;;;;;;;14.40;10.25;;;16.90;99.90;;;;;;6271151;22;20425;-73
2022/10/21 11:10:52;;;;;;;12.52;10.32;;;16.90;99.90;;;;;;6271626;22;19996;-73
2022/10/21 11:13:21;;;;;;;16.17;10.68;;;17.00;99.90;;;;;;6271500;22;20083;-73
2022/10/21 11:16:10;;;;;;;15.13;10.07;;;16.90;99.90;;;;;;6271395;22;20004;-73
2022/10/21 11:18:43;;;;;;;14.35;9.85;;;16.90;99.90;;;;;;6271932;22;20027;-73
2022/10/21 11:21:20;;;;;;;13.20;9.80;;;16.90;99.90;;;;;;6269807;22;20452;-73
2022/10/21 11:24:04;;;;;;;12.80;10.40;;;17.00;99.90;;;;;;6271310;22;20026;-73
2022/10/21 11:26:32;;;;;;;18.77;10.65;;;17.10;99.90;;;;;;6271880;22;20445;-73
2022/10/21 11:29:15;;;;;;;11.02;8.98;;;17.10;99.90;;;;;;6271517;22;20015;-73
2022/10/21 11:31:53;;;;;;;13.50;10.32;;;17.10;99.90;;;;;;6271156;22;20000;-73
2022/10/21 11:34:33;;;;;;;20.00;13.65;;;18.30;99.90;;;;;;6270771;22;20004;-73
2022/10/21 11:37:20;;;;;;;14.35;10.95;;;17.10;99.90;;;;;;6270634;22;20337;-73
2022/10/21 11:40:06;;;;;;;11.82;10.63;;;17.20;99.90;;;;;;6271398;22;20073;-73
2022/10/21 11:42:42;;;;;;;15.90;10.48;;;17.20;99.90;;;;;;6271490;22;20010;-73
2022/10/21 11:45:11;;;;;;;13.45;9.95;;;17.30;99.90;;;;;;6271878;22;20011;-73
2022/10/21 11:47:46;;;;;;;16.40;11.40;;;17.30;99.90;;;;;;6271470;22;20000;-74
2022/10/21 11:50:20;;;;;;;12.57;10.25;;;17.30;99.90;;;;;;6270373;22;20075;-73
2022/10/21 11:53:10;;;;;;;14.10;10.07;;;17.40;99.90;;;;;;6269423;22;20386;-74
2022/10/21 11:55:43;;;;;;;13.15;9.75;;;17.50;99.90;;;;;;6271590;22;20030;-73
2022/10/21 11:58:32;;;;;;;12.43;8.30;;;17.60;99.90;;;;;;6271845;22;20019;-73
2022/10/21 12:01:22;;;;;;;10.60;8.98;;;17.60;99.90;;;;;;6271123;22;20012;-73
2022/10/21 12:04:17;;;;;;;11.60;8.70;;;17.70;99.90;;;;;;6271537;22;20013;-74
2022/10/21 12:06:57;;;;;;;10.30;8.02;;;17.70;99.90;;;;;;6271008;22;20022;-74
2022/10/21 12:10:00;;;;;;;9.23;6.80;;;17.90;99.90;;;;;;6271280;22;19996;-75
2022/10/21 12:12:41;;;;;;;9.98;7.25;;;17.70;99.90;;;;;;6271020;22;20069;-74
2022/10/21 12:15:16;;;;;;;10.23;6.70;;;17.70;99.90;;;;;;6271887;22;20003;-76
2022/10/21 12:17:44;;;;;;;10.65;7.25;;;17.80;99.90;;;;;;6271374;22;20012;-76
2022/10/21 12:20:17;;;;;;;11.05;7.28;;;17.90;99.90;;;;;;6271256;22;20030;-75
2022/10/21 12:22:43;;;;;;;7.45;5.95;;;17.90;99.90;;;;;;6271609;22;20027;-76
2022/10/21 12:25:11;;;;;;;8.90;7.07;;;18.10;99.90;;;;;;6271832;22;20374;-76
2022/10/21 12:27:46;;;;;;;10.98;7.13;;;18.20;99.90;;;;;;6270555;22;20016;-76
2022/10/21 12:30:19;;;;;;;8.13;6.68;;;18.30;99.90;;;;;;6268780;22;20034;-76
2022/10/21 12:33:34;;;;;;;8.00;6.60;;;18.40;99.90;;;;;;6271132;22;20134;-75
2022/10/21 12:36:14;;;;;;;7.68;6.10;;;18.40;99.90;;;;;;6270116;22;20325;-75
2022/10/21 12:38:49;;;;;;;9.88;6.53;;;18.40;99.90;;;;;;6270229;22;20003;-75
2022/10/21 12:41:35;;;;;;;10.73;6.65;;;18.40;99.90;;;;;;6271430;22;20004;-76
2022/10/21 12:44:01;;;;;;;7.70;5.95;;;18.40;99.90;;;;;;6271257;22;20000;-75
2022/10/21 12:46:44;;;;;;;9.00;6.75;;;18.30;99.90;;;;;;6271572;22;20026;-75